Map

Track Data

SID SEASON NUMBER BASIN SUBBASIN NAME ISO_TIME NATURE LAT LON WMO_WIND WMO_PRES WMO_AGENCY TRACK_TYPE DIST2LAND LANDFALL IFLAG USA_AGENCY USA_ATCF_ID USA_LAT USA_LON USA_RECORD USA_STATUS USA_WIND USA_PRES USA_SSHS USA_R34_NE USA_R34_SE USA_R34_SW USA_R34_NW USA_R50_NE USA_R50_SE USA_R50_SW USA_R50_NW USA_R64_NE USA_R64_SE USA_R64_SW USA_R64_NW USA_POCI USA_ROCI USA_RMW USA_EYE TOKYO_LAT TOKYO_LON TOKYO_GRADE TOKYO_WIND TOKYO_PRES TOKYO_R50_DIR TOKYO_R50_LONG TOKYO_R50_SHORT TOKYO_R30_DIR TOKYO_R30_LONG TOKYO_R30_SHORT TOKYO_LAND CMA_LAT CMA_LON CMA_CAT CMA_WIND CMA_PRES HKO_LAT HKO_LON HKO_CAT HKO_WIND HKO_PRES NEWDELHI_LAT NEWDELHI_LON NEWDELHI_GRADE NEWDELHI_WIND NEWDELHI_PRES NEWDELHI_CI NEWDELHI_DP NEWDELHI_POCI REUNION_LAT REUNION_LON REUNION_TYPE REUNION_WIND REUNION_PRES REUNION_TNUM REUNION_CI REUNION_RMW REUNION_R34_NE REUNION_R34_SE REUNION_R34_SW REUNION_R34_NW REUNION_R50_NE REUNION_R50_SE REUNION_R50_SW REUNION_R50_NW REUNION_R64_NE REUNION_R64_SE REUNION_R64_SW REUNION_R64_NW BOM_LAT BOM_LON BOM_TYPE BOM_WIND BOM_PRES BOM_TNUM BOM_CI BOM_RMW BOM_R34_NE BOM_R34_SE BOM_R34_SW BOM_R34_NW BOM_R50_NE BOM_R50_SE BOM_R50_SW BOM_R50_NW BOM_R64_NE BOM_R64_SE BOM_R64_SW BOM_R64_NW BOM_ROCI BOM_POCI BOM_EYE BOM_POS_METHOD BOM_PRES_METHOD NADI_LAT NADI_LON NADI_CAT NADI_WIND NADI_PRES WELLINGTON_LAT WELLINGTON_LON WELLINGTON_WIND WELLINGTON_PRES DS824_LAT DS824_LON DS824_STAGE DS824_WIND DS824_PRES TD9636_LAT TD9636_LON TD9636_STAGE TD9636_WIND TD9636_PRES TD9635_LAT TD9635_LON TD9635_WIND TD9635_PRES TD9635_ROCI NEUMANN_LAT NEUMANN_LON NEUMANN_CLASS NEUMANN_WIND NEUMANN_PRES MLC_LAT MLC_LON MLC_CLASS MLC_WIND MLC_PRES USA_GUST BOM_GUST BOM_GUST_PER REUNION_GUST REUNION_GUST_PER USA_SEAHGT USA_SEARAD_NE USA_SEARAD_SE USA_SEARAD_SW USA_SEARAD_NW STORM_SPEED STORM_DIR
1999228N31128 1999 62 WP MM NOT_NAMED 1999-08-15 18:00:00 NR 31.0000 127.600 main 248 240 O_____________ jtwc_wp WP151999 31.0000 127.600 20 -1 3 143
1999228N31128 1999 62 WP MM NOT_NAMED 1999-08-15 21:00:00 NR 30.8825 127.703 main 240 232 P_____________ WP151999 30.8825 127.703 20 -1 3 139
1999228N31128 1999 62 WP MM NOT_NAMED 1999-08-16 00:00:00 NR 30.8000 127.800 main 232 223 O_____________ jtwc_wp WP151999 30.8000 127.800 20 -1 2 123
1999228N31128 1999 62 WP MM NOT_NAMED 1999-08-16 03:00:00 NR 30.7775 127.892 main 223 214 P_____________ WP151999 30.7775 127.892 22 -1 2 90
1999228N31128 1999 62 WP MM NOT_NAMED 1999-08-16 06:00:00 NR 30.8000 128.000 main 214 204 O_____________ jtwc_wp WP151999 30.8000 128.000 25 -1 2 80
1999228N31128 1999 62 WP MM NOT_NAMED 1999-08-16 09:00:00 NR 30.8124 128.120 main 204 183 P_____________ WP151999 30.8124 128.120 25 -1 3 69
1999228N31128 1999 62 WP MM NOT_NAMED 1999-08-16 12:00:00 NR 30.9000 128.300 main 183 161 O_____________ jtwc_wp WP151999 30.9000 128.300 25 -1 5 49
1999228N31128 1999 62 WP MM NOT_NAMED 1999-08-16 15:00:00 NR 31.1348 128.547 main 161 123 P_____________ WP151999 31.1348 128.547 25 -1 7 46
1999228N31128 1999 62 WP MM NOT_NAMED 1999-08-16 18:00:00 NR 31.4000 128.900 main 123 79 O_____________ jtwc_wp WP151999 31.4000 128.900 25 -1 8 62
1999228N31128 1999 62 WP MM NOT_NAMED 1999-08-16 21:00:00 NR 31.5281 129.423 main 79 30 P_____________ WP151999 31.5281 129.423 25 -1 9 71
1999228N31128 1999 62 WP MM NOT_NAMED 1999-08-17 00:00:00 NR 31.7000 129.900 main 30 9 O_____________ jtwc_wp WP151999 31.7000 129.900 25 -1 8 47
1999228N31128 1999 62 WP MM NOT_NAMED 1999-08-17 03:00:00 NR 32.0697 130.110 main 14 11 P_____________ WP151999 32.0697 130.110 25 -1 8 18
1999228N31128 1999 62 WP MM NOT_NAMED 1999-08-17 06:00:00 NR 32.5000 130.200 main 11 0 O_____________ jtwc_wp WP151999 32.5000 130.200 25 -1 8 12
1999228N31128 1999 62 WP MM NOT_NAMED 1999-08-17 09:00:00 NR 32.8650 130.308 main 11 0 P_____________ WP151999 32.8650 130.308 25 -1 7 13
1999228N31128 1999 62 WP MM NOT_NAMED 1999-08-17 12:00:00 NR 33.2000 130.400 main 0 0 O_____________ jtwc_wp WP151999 33.2000 130.400 25 -1 7 15
1999228N31128 1999 62 WP MM NOT_NAMED 1999-08-17 15:00:00 NR 33.5000 130.515 main 0 0 P_____________ WP151999 33.5000 130.515 25 -1 6 16
1999228N31128 1999 62 WP MM NOT_NAMED 1999-08-17 18:00:00 NR 33.8000 130.600 main 0 0 O_____________ jtwc_wp WP151999 33.8000 130.600 25 -1 6 8
1999228N31128 1999 62 WP MM NOT_NAMED 1999-08-17 21:00:00 NR 34.1125 130.608 main 27 27 P_____________ WP151999 34.1125 130.608 25 -1 7 0
1999228N31128 1999 62 WP MM NOT_NAMED 1999-08-18 00:00:00 NR 34.5000 130.600 main 35 35 O_____________ jtwc_wp WP151999 34.5000 130.600 25 -1 9 2
1999228N31128 1999 62 WP MM NOT_NAMED 1999-08-18 03:00:00 NR 35.0425 130.635 main 82 82 P_____________ WP151999 35.0425 130.635 25 -1 11 4
1999228N31128 1999 62 WP MM NOT_NAMED 1999-08-18 06:00:00 NR 35.6000 130.700 main 108 101 O_____________ jtwc_wp WP151999 35.6000 130.700 25 -1 10 7
1999228N31128 1999 62 WP MM NOT_NAMED 1999-08-18 09:00:00 NR 36.0150 130.793 main 107 107 P_____________ WP151999 36.0150 130.793 22 -1 8 12
1999228N31128 1999 62 WP MM NOT_NAMED 1999-08-18 12:00:00 NR 36.4000 130.900 main 124 124 O_____________ jtwc_wp WP151999 36.4000 130.900 20 -1 9 11
1999228N31128 1999 62 WP MM NOT_NAMED 1999-08-18 15:00:00 NR 36.8500 131.000 main 133 133 P_____________ WP151999 36.8500 131.000 20 -1 9 10
1999228N31128 1999 62 WP MM NOT_NAMED 1999-08-18 18:00:00 NR 37.3000 131.100 main 151 151 O_____________ jtwc_wp WP151999 37.3000 131.100 20 -1 9 10
1999228N31128 1999 62 WP MM NOT_NAMED 1999-08-18 21:00:00 NR 37.7074 131.185 main 172 172 P_____________ WP151999 37.7074 131.185 20 -1 8 11
1999228N31128 1999 62 WP MM NOT_NAMED 1999-08-19 00:00:00 NR 38.1000 131.300 main 195 195 O_____________ jtwc_wp WP151999 38.1000 131.300 20 -1 8 17
1999228N31128 1999 62 WP MM NOT_NAMED 1999-08-19 03:00:00 NR 38.4775 131.478 main 227 227 P_____________ WP151999 38.4775 131.478 20 -1 9 21
1999228N31128 1999 62 WP MM NOT_NAMED 1999-08-19 06:00:00 NR 38.9000 131.700 main 262 243 O_____________ jtwc_wp WP151999 38.9000 131.700 20 -1 10 20
1999228N31128 1999 62 WP MM NOT_NAMED 1999-08-19 09:00:00 NR 39.3973 131.914 main 243 226 P_____________ WP151999 39.3973 131.914 20 -1 12 19
1999228N31128 1999 62 WP MM NOT_NAMED 1999-08-19 12:00:00 NR 40.0000 132.200 main 229 223 O_____________ jtwc_wp WP151999 40.0000 132.200 20 -1 15 19
1999228N31128 1999 62 WP MM NOT_NAMED 1999-08-19 15:00:00 NR 40.7711 132.531 main 213 133 P_____________ WP151999 40.7711 132.531 20 -1 16 24
1999228N31128 1999 62 WP MM NOT_NAMED 1999-08-19 18:00:00 NR 41.5000 133.100 main 133 92 O_____________ jtwc_wp WP151999 41.5000 133.100 20 -1 17 43
1999228N31128 1999 62 WP MM NOT_NAMED 1999-08-19 21:00:00 NR 41.9835 134.038 main 92 92 P_____________ WP151999 41.9834 134.038 20 -1 18 63
1999228N31128 1999 62 WP MM NOT_NAMED 1999-08-20 00:00:00 NR 42.3000 135.200 main 119 O_____________ jtwc_wp WP151999 42.3000 135.200 20 -1 18 70

Digital Typhoon Data and Search

About IBTrACS Database

This database is a web-friendly format of International Best Track Archive for Climate Stewardship (IBTrACS), a global best track data archive curated by NOAA dating back to 1842.

Updated: 2021-10-19